Aviation WX

[Source: ADDS]
METAR
KDUJ 260553Z AUTO 00000KT 10SM OVC095 18/08 A3013 RMK AO2 SLP191 T01780083 10222 20167 56006 =
TAF
KDUJ 260520Z 2606/2706 18003KT P6SM BKN100 FM261600 21007KT P6SM VCTS BKN050CB FM262100 22005KT P6SM BKN080 =